createdAt,value
2022-09-28T00:00:18.976Z,2.67
2022-09-28T00:02:20.286Z,0.30
2022-09-28T00:04:21.260Z,0.78
2022-09-28T00:06:26.587Z,0.33
2022-09-28T00:08:27.523Z,2.07
2022-09-28T00:10:28.459Z,0.65
2022-09-28T00:12:30.324Z,0.62
2022-09-28T00:14:33.323Z,1.50
2022-09-28T00:16:35.941Z,0.20
2022-09-28T00:18:37.005Z,0.85
2022-09-28T00:20:38.066Z,0.28
2022-09-28T00:22:41.237Z,0.88
2022-09-28T00:24:42.204Z,0.60
2022-09-28T00:26:46.000Z,0.62
2022-09-28T00:28:46.938Z,1.17
2022-09-28T00:30:47.888Z,2.47
2022-09-28T00:32:48.846Z,1.77
2022-09-28T00:34:50.489Z,1.55
2022-09-28T00:36:51.721Z,1.15
2022-09-28T00:38:52.664Z,3.12
2022-09-28T00:40:55.086Z,0.10
2022-09-28T00:42:56.129Z,1.90
2022-09-28T00:44:57.788Z,1.85
2022-09-28T00:47:03.781Z,1.75
2022-09-28T00:49:10.866Z,3.37
2022-09-28T00:51:12.358Z,3.62
2022-09-28T00:53:21.328Z,1.92
2022-09-28T00:55:24.220Z,0.80
2022-09-28T00:57:25.449Z,0.68
2022-09-28T00:59:26.398Z,0.93
2022-09-28T01:01:27.590Z,3.17
2022-09-28T01:03:29.654Z,1.90
2022-09-28T01:05:31.133Z,2.62
2022-09-28T01:07:36.537Z,1.82
2022-09-28T01:09:42.926Z,2.98
2022-09-28T01:13:47.764Z,0.55
2022-09-28T01:15:52.653Z,1.15
2022-09-28T01:18:08.429Z,0.20
2022-09-28T01:20:26.115Z,1.10
2022-09-28T01:22:38.580Z,0.50
2022-09-28T01:24:41.527Z,3.33
2022-09-28T01:26:58.551Z,2.87
2022-09-28T01:29:02.604Z,2.10
2022-09-28T01:31:08.499Z,0.95
2022-09-28T01:33:14.159Z,1.72
2022-09-28T01:35:20.233Z,3.10
2022-09-28T01:37:23.880Z,1.00
2022-09-28T01:39:29.648Z,2.67
2022-09-28T01:41:32.890Z,2.52
2022-09-28T01:43:36.560Z,1.15
2022-09-28T01:45:45.453Z,0.15
2022-09-28T01:47:46.996Z,1.42
2022-09-28T01:49:49.948Z,1.67
2022-09-28T01:51:58.949Z,1.75
2022-09-28T01:54:01.433Z,0.75
2022-09-28T01:56:10.515Z,0.93
2022-09-28T01:58:20.968Z,0.35
2022-09-28T02:00:23.303Z,0.20
2022-09-28T02:02:26.220Z,3.20
2022-09-28T02:04:32.073Z,1.87
2022-09-28T02:06:38.136Z,1.07
2022-09-28T02:08:42.900Z,0.45
2022-09-28T02:10:46.161Z,0.30
2022-09-28T02:12:54.768Z,1.37
2022-09-28T02:14:57.892Z,1.57
2022-09-28T02:16:59.457Z,1.67
2022-09-28T02:19:03.291Z,3.27
2022-09-28T02:21:14.864Z,0.50
2022-09-28T02:23:16.425Z,0.80
2022-09-28T02:25:23.202Z,1.65
2022-09-28T02:27:32.172Z,0.20
2022-09-28T02:29:33.350Z,1.45
2022-09-28T02:31:35.100Z,2.67
2022-09-28T02:33:37.640Z,2.47
2022-09-28T02:35:39.665Z,6.53
2022-09-28T02:37:40.832Z,0.90
2022-09-28T02:39:41.869Z,1.72
2022-09-28T02:41:45.198Z,3.22
2022-09-28T02:43:48.056Z,3.58
2022-09-28T02:45:58.929Z,0.70
2022-09-28T02:48:06.741Z,0.78
2022-09-28T02:50:28.347Z,2.17
2022-09-28T02:52:32.050Z,1.37
2022-09-28T02:54:50.685Z,1.75
2022-09-28T02:56:53.830Z,1.47
2022-09-28T02:58:56.676Z,3.17
2022-09-28T03:00:59.586Z,1.32
2022-09-28T03:03:08.246Z,0.75
2022-09-28T03:05:11.317Z,3.10
2022-09-28T03:07:31.488Z,2.08
2022-09-28T03:09:52.181Z,0.40
2022-09-28T03:11:55.005Z,0.78
2022-09-28T03:13:56.336Z,1.82
2022-09-28T03:16:15.829Z,0.60
2022-09-28T03:18:18.647Z,0.20
2022-09-28T03:20:21.792Z,1.05
2022-09-28T03:22:22.781Z,0.65
2022-09-28T03:24:23.829Z,0.70
2022-09-28T03:26:24.874Z,1.37
2022-09-28T03:28:27.509Z,0.10
2022-09-28T03:30:28.648Z,0.10
2022-09-28T03:32:29.953Z,1.20
2022-09-28T03:34:30.894Z,0.10
2022-09-28T03:36:32.138Z,2.27
2022-09-28T03:38:33.376Z,3.37
2022-09-28T03:40:34.431Z,3.90
2022-09-28T03:42:37.109Z,0.25
2022-09-28T03:44:38.450Z,0.20
2022-09-28T03:46:39.589Z,1.20
2022-09-28T03:48:42.466Z,1.17
2022-09-28T03:50:44.519Z,1.82
2022-09-28T03:52:45.481Z,0.42
2022-09-28T03:54:49.259Z,0.40
2022-09-28T03:56:49.562Z,0.62
2022-09-28T03:58:50.688Z,0.20
2022-09-28T04:00:51.680Z,1.07
2022-09-28T04:02:53.118Z,0.42
2022-09-28T04:04:54.065Z,1.98
2022-09-28T04:06:55.399Z,0.10
2022-09-28T04:08:56.600Z,1.82
2022-09-28T04:10:59.661Z,0.90
2022-09-28T04:13:00.592Z,0.50
2022-09-28T04:15:01.754Z,1.37
2022-09-28T04:17:02.777Z,1.25
2022-09-28T04:19:05.849Z,2.10
2022-09-28T04:21:11.482Z,0.25
2022-09-28T04:23:14.921Z,0.35
2022-09-28T04:25:16.674Z,0.28
2022-09-28T04:27:36.698Z,0.20
2022-09-28T04:29:42.334Z,2.25
2022-09-28T04:31:46.132Z,0.40
2022-09-28T04:33:48.547Z,0.23
2022-09-28T04:35:49.564Z,0.15
2022-09-28T04:37:52.534Z,0.88
2022-09-28T04:39:53.579Z,0.35
2022-09-28T04:41:54.499Z,0.50
2022-09-28T04:43:55.431Z,0.20
2022-09-28T04:45:59.786Z,0.10
2022-09-28T04:48:04.607Z,0.33
2022-09-28T04:52:38.805Z,0.15
2022-09-28T04:54:40.750Z,1.25
2022-09-28T04:56:41.717Z,0.10
2022-09-28T04:58:43.060Z,1.30
2022-09-28T05:00:44.608Z,1.87
2022-09-28T05:03:02.144Z,1.95
2022-09-28T05:05:05.441Z,2.40
2022-09-28T05:07:25.207Z,1.45
2022-09-28T05:09:26.082Z,0.42
2022-09-28T05:11:27.994Z,0.42
2022-09-28T05:13:29.746Z,1.80
2022-09-28T05:15:30.951Z,2.25
2022-09-28T05:17:31.993Z,1.02
2022-09-28T05:19:46.678Z,1.00
2022-09-28T05:21:48.850Z,0.93
2022-09-28T05:23:50.094Z,1.15
2022-09-28T05:25:51.224Z,0.62
2022-09-28T05:27:56.365Z,0.17
2022-09-28T05:29:59.204Z,0.60
2022-09-28T05:32:08.066Z,0.80
2022-09-28T05:34:13.677Z,1.47
2022-09-28T05:36:14.911Z,0.50
2022-09-28T05:38:16.945Z,1.05
2022-09-28T05:40:19.225Z,2.00
2022-09-28T05:42:20.185Z,2.30
2022-09-28T05:44:21.121Z,2.10
2022-09-28T05:46:23.132Z,4.05
2022-09-28T05:48:24.788Z,1.00
2022-09-28T05:50:26.122Z,1.00
2022-09-28T05:52:27.109Z,2.42
2022-09-28T05:54:28.478Z,2.52
2022-09-28T05:56:29.919Z,3.02
2022-09-28T05:58:30.958Z,6.97
2022-09-28T06:00:33.663Z,5.00
2022-09-28T06:02:35.577Z,4.58
2022-09-28T06:04:36.726Z,8.08
2022-09-28T06:06:38.544Z,5.20
2022-09-28T06:08:41.466Z,1.55
2022-09-28T06:10:57.966Z,2.10
2022-09-28T06:12:59.333Z,4.30
2022-09-28T06:15:00.602Z,5.80
2022-09-28T06:17:02.417Z,8.73
2022-09-28T06:19:03.526Z,1.82
2022-09-28T06:21:24.045Z,2.45
2022-09-28T06:23:24.973Z,2.50
2022-09-28T06:25:29.053Z,5.55
2022-09-28T06:27:30.022Z,6.35
2022-09-28T06:29:31.071Z,3.35
2022-09-28T06:31:32.105Z,2.80
2022-09-28T06:33:33.042Z,4.15
2022-09-28T06:35:34.198Z,3.90
2022-09-28T06:37:35.910Z,4.20
2022-09-28T06:39:37.132Z,2.67
2022-09-28T06:41:39.302Z,3.30
2022-09-28T06:43:47.880Z,4.33
2022-09-28T06:46:09.202Z,6.03
2022-09-28T06:48:27.412Z,4.22
2022-09-28T06:50:32.781Z,4.85
2022-09-28T06:52:41.664Z,2.10
2022-09-28T06:54:47.301Z,3.47
2022-09-28T06:56:50.562Z,3.20
2022-09-28T06:58:54.477Z,6.60
2022-09-28T07:00:59.644Z,4.78
2022-09-28T07:03:03.644Z,5.12
2022-09-28T07:05:08.464Z,1.62
2022-09-28T07:07:15.763Z,6.25
2022-09-28T07:09:42.718Z,4.95
2022-09-28T07:11:57.879Z,6.22
2022-09-28T07:14:00.743Z,3.75
2022-09-28T07:16:03.560Z,5.30
2022-09-28T07:18:06.504Z,3.83
2022-09-28T07:20:17.291Z,2.40
2022-09-28T07:22:17.445Z,4.12
2022-09-28T07:24:15.457Z,3.00
2022-09-28T07:26:34.801Z,4.55
2022-09-28T07:28:40.791Z,6.47
2022-09-28T07:31:02.133Z,5.20
2022-09-28T07:33:09.966Z,3.27
2022-09-28T07:35:12.928Z,6.10
2022-09-28T07:37:18.816Z,7.87
2022-09-28T07:39:20.796Z,4.45
2022-09-28T07:41:23.753Z,2.47
2022-09-28T07:43:25.416Z,4.30
2022-09-28T07:45:29.180Z,3.98
2022-09-28T07:47:34.895Z,6.42
2022-09-28T07:49:54.377Z,4.95
2022-09-28T07:51:57.200Z,3.45
2022-09-28T07:54:03.368Z,1.37
2022-09-28T07:56:09.738Z,1.80
2022-09-28T07:58:19.792Z,2.08
2022-09-28T08:00:22.611Z,1.45
2022-09-28T08:02:23.724Z,5.25
2022-09-28T08:04:25.332Z,3.40
2022-09-28T08:06:29.520Z,1.00
2022-09-28T08:08:32.584Z,1.95
2022-09-28T08:10:33.620Z,2.67
2022-09-28T08:12:38.863Z,3.55
2022-09-28T08:14:41.789Z,1.22
2022-09-28T08:16:46.724Z,2.52
2022-09-28T08:18:50.862Z,2.90
2022-09-28T08:21:10.395Z,2.35
2022-09-28T08:23:12.324Z,0.98
2022-09-28T08:25:14.568Z,4.05
2022-09-28T08:27:17.800Z,1.12
2022-09-28T08:29:19.186Z,2.45
2022-09-28T08:31:27.985Z,0.80
2022-09-28T08:33:48.491Z,1.37
2022-09-28T08:36:08.557Z,3.80
2022-09-28T08:38:26.954Z,0.45
2022-09-28T08:40:31.728Z,2.85
2022-09-28T08:42:39.020Z,1.32
2022-09-28T08:44:57.072Z,1.87
2022-09-28T08:47:07.556Z,5.90
2022-09-28T08:49:26.163Z,3.60
2022-09-28T08:51:51.708Z,2.12
2022-09-28T08:54:00.175Z,2.52
2022-09-28T08:56:05.050Z,1.92
2022-09-28T08:58:09.340Z,3.67
2022-09-28T09:00:12.376Z,3.72
2022-09-28T09:02:15.395Z,4.22
2022-09-28T09:04:17.318Z,2.60
2022-09-28T09:06:51.826Z,1.17
2022-09-28T09:09:11.357Z,2.50
2022-09-28T09:11:16.982Z,2.20
2022-09-28T09:13:20.167Z,3.00
2022-09-28T09:15:33.378Z,2.85
2022-09-28T09:17:38.101Z,2.15
2022-09-28T09:19:51.761Z,2.83
2022-09-28T09:22:10.249Z,0.45
2022-09-28T09:24:14.136Z,1.62
2022-09-28T09:26:21.810Z,1.27
2022-09-28T09:28:34.587Z,0.95
2022-09-28T09:30:40.540Z,2.30
2022-09-28T09:32:43.541Z,0.82
2022-09-28T09:34:58.502Z,2.77
2022-09-28T09:37:28.882Z,4.10
2022-09-28T09:40:01.123Z,0.10
2022-09-28T09:42:28.984Z,2.12
2022-09-28T09:44:56.364Z,2.62
2022-09-28T09:47:06.113Z,2.37
2022-09-28T09:49:20.831Z,0.85
2022-09-28T09:51:24.248Z,3.42
2022-09-28T09:53:31.964Z,1.37
2022-09-28T09:55:35.604Z,2.15
2022-09-28T09:57:40.329Z,2.50
2022-09-28T09:59:44.478Z,3.05
2022-09-28T10:01:47.410Z,0.45
2022-09-28T10:03:50.757Z,0.90
2022-09-28T10:05:55.385Z,2.83
2022-09-28T10:08:09.945Z,2.35
2022-09-28T10:10:19.876Z,1.80
2022-09-28T10:12:23.121Z,1.45
2022-09-28T10:14:25.489Z,1.10
2022-09-28T10:16:29.480Z,0.20
2022-09-28T10:18:32.625Z,3.00
2022-09-28T10:20:50.388Z,1.12
2022-09-28T10:22:57.522Z,1.57
2022-09-28T10:24:59.341Z,1.47
2022-09-28T10:27:05.562Z,3.58
2022-09-28T10:29:18.508Z,1.17
2022-09-28T10:31:38.701Z,2.17
2022-09-28T10:33:41.762Z,1.80
2022-09-28T10:35:42.935Z,2.27
2022-09-28T10:37:56.144Z,2.12
2022-09-28T10:40:10.456Z,0.75
2022-09-28T10:42:12.434Z,2.60
2022-09-28T10:44:15.373Z,1.10
2022-09-28T10:46:22.812Z,2.30
2022-09-28T10:48:27.843Z,1.07
2022-09-28T10:50:31.170Z,1.85
2022-09-28T10:52:39.197Z,1.52
2022-09-28T10:54:42.308Z,7.53
2022-09-28T10:56:43.639Z,1.17
2022-09-28T10:58:46.571Z,1.67
2022-09-28T11:00:49.520Z,0.80
2022-09-28T11:02:52.545Z,1.05
2022-09-28T11:05:00.237Z,1.65
2022-09-28T11:07:04.947Z,3.35
2022-09-28T11:09:29.839Z,2.90
2022-09-28T11:11:30.797Z,1.62
2022-09-28T11:13:41.545Z,0.78
2022-09-28T11:15:44.316Z,1.50
2022-09-28T11:17:47.145Z,0.60
2022-09-28T11:19:50.118Z,1.47
2022-09-28T11:21:51.151Z,1.52
2022-09-28T11:24:06.749Z,1.77
2022-09-28T11:28:17.340Z,1.65
2022-09-28T11:30:24.198Z,0.50
2022-09-28T11:32:43.285Z,2.72
2022-09-28T11:34:59.652Z,1.80
2022-09-28T11:37:03.428Z,0.75
2022-09-28T11:39:13.203Z,1.05
2022-09-28T11:41:34.591Z,1.62
2022-09-28T11:43:42.136Z,0.95
2022-09-28T11:45:47.725Z,0.72
2022-09-28T11:47:50.546Z,1.60
2022-09-28T11:50:10.474Z,1.85
2022-09-28T11:52:22.175Z,2.10
2022-09-28T11:54:28.295Z,3.02
2022-09-28T11:56:31.577Z,2.00
2022-09-28T11:58:34.484Z,0.98
2022-09-28T12:00:37.633Z,2.50
2022-09-28T12:02:41.113Z,0.50
2022-09-28T12:04:45.827Z,1.92
2022-09-28T12:06:49.257Z,0.60
2022-09-28T12:08:57.634Z,3.00
2022-09-28T12:11:22.049Z,3.40
2022-09-28T12:13:44.011Z,1.25
2022-09-28T12:17:54.662Z,1.95
2022-09-28T12:20:06.633Z,1.70
2022-09-28T12:22:12.480Z,0.95
2022-09-28T12:24:16.171Z,1.35
2022-09-28T12:26:25.021Z,3.80
2022-09-28T12:28:39.809Z,0.20
2022-09-28T12:30:43.225Z,0.55
2022-09-28T12:32:46.084Z,1.27
2022-09-28T12:34:47.007Z,0.80
2022-09-28T12:36:53.036Z,0.82
2022-09-28T12:41:24.893Z,1.42
2022-09-28T12:43:45.713Z,2.65
2022-09-28T12:46:12.841Z,0.95
2022-09-28T12:48:14.807Z,1.87
2022-09-28T12:50:38.621Z,1.55
2022-09-28T12:52:37.262Z,1.85
2022-09-28T12:54:46.064Z,0.20
2022-09-28T12:56:59.945Z,0.60
2022-09-28T12:59:05.541Z,0.50
2022-09-28T13:01:17.201Z,0.30
2022-09-28T13:03:23.158Z,0.40
2022-09-28T13:05:28.746Z,0.40
2022-09-28T13:07:31.580Z,0.75
2022-09-28T13:09:34.448Z,1.12
2022-09-28T13:11:43.076Z,0.20
2022-09-28T13:13:45.889Z,0.95
2022-09-28T13:15:55.717Z,0.50
2022-09-28T13:18:05.204Z,0.68
2022-09-28T13:20:22.931Z,0.20
2022-09-28T13:22:31.915Z,0.42
2022-09-28T13:24:34.854Z,0.60
2022-09-28T13:26:37.168Z,0.40
2022-09-28T13:28:38.715Z,0.88
2022-09-28T13:30:39.962Z,0.30
2022-09-28T13:32:41.698Z,0.70
2022-09-28T13:34:44.565Z,1.05
2022-09-28T13:36:48.321Z,0.20
2022-09-28T13:38:49.112Z,0.20
2022-09-28T13:41:08.579Z,0.20
2022-09-28T13:43:11.428Z,0.30
2022-09-28T13:45:17.436Z,0.20
2022-09-28T13:47:32.781Z,0.50
2022-09-28T13:49:42.476Z,0.55
2022-09-28T13:51:54.755Z,0.20
2022-09-28T13:54:14.974Z,0.30
2022-09-28T13:56:20.865Z,1.27
2022-09-28T13:58:26.748Z,0.60
2022-09-28T14:00:32.347Z,0.75
2022-09-28T14:02:35.841Z,0.20
2022-09-28T14:04:55.461Z,1.05
2022-09-28T14:06:58.285Z,0.20
2022-09-28T14:09:06.573Z,1.85
2022-09-28T14:11:26.882Z,0.78
2022-09-28T14:13:44.683Z,0.30
2022-09-28T14:15:45.952Z,0.20
2022-09-28T14:17:49.525Z,0.20
2022-09-28T14:19:52.397Z,0.25
2022-09-28T14:22:04.385Z,0.20
2022-09-28T14:24:16.581Z,0.75
2022-09-28T14:26:38.076Z,0.20
2022-09-28T14:28:49.991Z,0.30
2022-09-28T14:30:53.707Z,0.20
2022-09-28T14:32:55.583Z,0.10
2022-09-28T14:34:58.490Z,0.30
2022-09-28T14:37:19.120Z,0.20
2022-09-28T14:39:46.506Z,0.20
2022-09-28T14:41:50.336Z,0.28
2022-09-28T14:44:02.269Z,0.20
2022-09-28T14:46:20.285Z,0.20
2022-09-28T14:48:24.192Z,0.40
2022-09-28T14:50:27.223Z,0.20
2022-09-28T14:52:30.910Z,0.20
2022-09-28T14:54:52.748Z,0.20
2022-09-28T14:56:56.401Z,0.20
2022-09-28T14:58:58.065Z,0.20
2022-09-28T15:01:01.031Z,0.20
2022-09-28T15:03:07.855Z,0.20
2022-09-28T15:05:15.227Z,0.20
2022-09-28T15:07:20.759Z,0.30
2022-09-28T15:09:25.777Z,0.40
2022-09-28T15:11:27.696Z,0.20
2022-09-28T15:13:29.751Z,0.20
2022-09-28T15:15:36.348Z,0.30
2022-09-28T15:17:40.061Z,0.10
2022-09-28T15:19:43.069Z,0.10
2022-09-28T15:21:46.021Z,0.20
2022-09-28T15:23:47.665Z,0.20
2022-09-28T15:25:52.420Z,0.68
2022-09-28T15:27:54.883Z,0.20
2022-09-28T15:29:59.506Z,1.00
2022-09-28T15:32:00.753Z,0.82
2022-09-28T15:34:20.006Z,0.20
2022-09-28T15:36:23.620Z,0.30
2022-09-28T15:38:24.664Z,0.20
2022-09-28T15:40:30.411Z,0.78
2022-09-28T15:42:36.007Z,0.23
2022-09-28T15:44:37.706Z,0.82
2022-09-28T15:46:46.372Z,0.40
2022-09-28T15:48:52.571Z,0.75
2022-09-28T15:53:00.130Z,0.30
2022-09-28T15:55:04.642Z,0.20
2022-09-28T15:57:05.634Z,0.40
2022-09-28T15:59:09.158Z,0.30
2022-09-28T16:01:21.270Z,0.20
2022-09-28T16:03:24.999Z,0.30
2022-09-28T16:05:32.916Z,0.20
2022-09-28T16:07:37.986Z,0.30
2022-09-28T16:09:56.258Z,0.75
2022-09-28T16:11:58.394Z,0.20
2022-09-28T16:14:08.178Z,0.33
2022-09-28T16:16:12.061Z,0.20
2022-09-28T16:18:19.480Z,0.25
2022-09-28T16:20:31.833Z,0.20
2022-09-28T16:22:33.019Z,0.20
2022-09-28T16:24:36.357Z,0.37
2022-09-28T16:26:39.089Z,0.50
2022-09-28T16:28:43.933Z,0.10
2022-09-28T16:30:59.120Z,0.20
2022-09-28T16:33:01.947Z,0.45
2022-09-28T16:35:07.900Z,0.33
2022-09-28T16:37:10.728Z,0.20
2022-09-28T16:39:12.516Z,0.20
2022-09-28T16:41:15.668Z,0.65
2022-09-28T16:43:18.462Z,0.10
2022-09-28T16:45:20.955Z,0.35
2022-09-28T16:47:22.534Z,0.20
2022-09-28T16:49:24.797Z,0.30
2022-09-28T16:51:25.819Z,0.10
2022-09-28T16:53:45.244Z,0.80
2022-09-28T16:55:48.072Z,0.53
2022-09-28T16:57:49.795Z,0.20
2022-09-28T16:59:50.760Z,0.15
2022-09-28T17:01:51.860Z,0.10
2022-09-28T17:03:53.620Z,0.20
2022-09-28T17:05:55.051Z,0.40
2022-09-28T17:08:00.662Z,0.13
2022-09-28T17:10:01.716Z,0.20
2022-09-28T17:12:05.494Z,0.20
2022-09-28T17:14:08.142Z,0.10
2022-09-28T17:16:11.053Z,0.20
2022-09-28T17:18:14.677Z,0.10
2022-09-28T17:20:17.840Z,0.20
2022-09-28T17:22:18.806Z,0.20
2022-09-28T17:24:19.829Z,0.35
2022-09-28T17:26:23.533Z,0.10
2022-09-28T17:28:26.628Z,0.10
2022-09-28T17:30:27.547Z,0.10
2022-09-28T17:32:28.540Z,0.50
2022-09-28T17:34:29.584Z,0.35
2022-09-28T17:36:30.668Z,0.40
2022-09-28T17:38:33.521Z,0.30
2022-09-28T17:40:34.609Z,0.47
2022-09-28T17:42:35.532Z,0.10
2022-09-28T17:44:36.488Z,0.20
2022-09-28T17:46:38.886Z,0.20
2022-09-28T17:48:40.581Z,0.20
2022-09-28T17:50:46.271Z,0.20
2022-09-28T17:52:45.384Z,0.20
2022-09-28T17:54:46.311Z,0.28
2022-09-28T17:56:47.328Z,0.20
2022-09-28T17:58:48.446Z,0.30
2022-09-28T18:00:50.409Z,0.62
2022-09-28T18:02:51.420Z,0.30
2022-09-28T18:04:53.776Z,0.25
2022-09-28T18:06:55.132Z,0.17
2022-09-28T18:08:56.926Z,0.20
2022-09-28T18:10:58.033Z,0.17
2022-09-28T18:12:59.021Z,0.20
2022-09-28T18:14:59.957Z,0.50
2022-09-28T18:17:00.985Z,0.25
2022-09-28T18:19:02.994Z,0.72
2022-09-28T18:21:04.081Z,0.78
2022-09-28T18:23:05.099Z,0.25
2022-09-28T18:25:06.556Z,0.65
2022-09-28T18:27:07.516Z,0.88
2022-09-28T18:29:08.514Z,1.37
2022-09-28T18:31:10.742Z,0.95
2022-09-28T18:33:12.306Z,1.05
2022-09-28T18:35:13.220Z,0.17
2022-09-28T18:37:14.302Z,1.25
2022-09-28T18:39:15.345Z,0.68
2022-09-28T18:41:16.310Z,1.10
2022-09-28T18:43:17.246Z,1.98
2022-09-28T18:45:18.303Z,0.30
2022-09-28T18:47:19.266Z,0.20
2022-09-28T18:49:20.974Z,3.37
2022-09-28T18:51:22.159Z,0.82
2022-09-28T18:53:23.215Z,0.70
2022-09-28T18:55:24.227Z,1.62
2022-09-28T18:57:25.865Z,2.17
2022-09-28T18:59:26.822Z,1.67
2022-09-28T19:01:30.928Z,1.95
2022-09-28T19:03:32.634Z,0.20
2022-09-28T19:05:34.358Z,0.20
2022-09-28T19:07:35.417Z,0.82
2022-09-28T19:09:36.420Z,0.70
2022-09-28T19:11:37.373Z,1.42
2022-09-28T19:13:39.820Z,1.40
2022-09-28T19:15:40.756Z,0.60
2022-09-28T19:17:41.783Z,0.57
2022-09-28T19:19:42.832Z,0.30
2022-09-28T19:21:43.921Z,0.30
2022-09-28T19:23:49.258Z,0.10
2022-09-28T19:25:48.824Z,0.50
2022-09-28T19:27:50.974Z,0.20
2022-09-28T19:29:51.903Z,1.20
2022-09-28T19:31:52.848Z,0.20
2022-09-28T19:33:53.867Z,0.45
2022-09-28T19:35:55.689Z,0.85
2022-09-28T19:37:56.650Z,1.22
2022-09-28T19:39:57.614Z,0.40
2022-09-28T19:42:00.418Z,0.20
2022-09-28T19:44:03.476Z,1.00
2022-09-28T19:46:05.215Z,0.30
2022-09-28T19:48:06.213Z,0.55
2022-09-28T19:50:07.505Z,0.62
2022-09-28T19:52:14.237Z,0.30
2022-09-28T19:54:15.981Z,0.33
2022-09-28T19:56:18.021Z,0.60
2022-09-28T19:58:23.297Z,0.20
2022-09-28T20:00:24.339Z,0.55
2022-09-28T20:02:25.297Z,0.28
2022-09-28T20:04:28.397Z,1.00
2022-09-28T20:06:30.254Z,0.20
2022-09-28T20:08:31.332Z,0.15
2022-09-28T20:10:32.382Z,0.30
2022-09-28T20:12:33.906Z,0.75
2022-09-28T20:14:39.505Z,0.20
2022-09-28T20:16:38.565Z,0.20
2022-09-28T20:18:42.482Z,0.10
2022-09-28T20:20:43.513Z,0.10
2022-09-28T20:22:44.444Z,0.13
2022-09-28T20:24:45.368Z,1.15
2022-09-28T20:26:46.416Z,0.20
2022-09-28T20:28:47.520Z,0.20
2022-09-28T20:30:48.495Z,0.28
2022-09-28T20:32:49.734Z,0.25
2022-09-28T20:34:50.845Z,0.30
2022-09-28T20:36:51.808Z,0.28
2022-09-28T20:38:53.462Z,0.53
2022-09-28T20:40:56.688Z,0.10
2022-09-28T20:42:57.777Z,0.40
2022-09-28T20:44:58.706Z,0.10
2022-09-28T20:47:02.200Z,1.45
2022-09-28T20:49:04.812Z,0.10
2022-09-28T20:51:08.623Z,0.30
2022-09-28T20:53:09.472Z,2.22
2022-09-28T20:55:10.427Z,0.42
2022-09-28T20:57:17.011Z,0.10
2022-09-28T20:59:19.467Z,0.30
2022-09-28T21:01:21.648Z,0.10
2022-09-28T21:03:22.668Z,0.30
2022-09-28T21:05:23.623Z,0.30
2022-09-28T21:07:25.388Z,0.20
2022-09-28T21:09:30.857Z,0.28
2022-09-28T21:11:34.315Z,0.20
2022-09-28T21:13:35.271Z,0.28
2022-09-28T21:15:36.272Z,0.55
2022-09-28T21:17:37.287Z,0.40
2022-09-28T21:19:40.201Z,1.87
2022-09-28T21:21:41.804Z,0.25
2022-09-28T21:23:45.729Z,0.20
2022-09-28T21:25:46.770Z,0.75
2022-09-28T21:27:47.975Z,0.30
2022-09-28T21:29:48.945Z,0.10
2022-09-28T21:31:49.892Z,0.95
2022-09-28T21:33:50.999Z,1.10
2022-09-28T21:35:52.219Z,1.32
2022-09-28T21:37:53.271Z,0.23
2022-09-28T21:39:54.348Z,0.72
2022-09-28T21:41:55.277Z,0.93
2022-09-28T21:43:56.239Z,0.65
2022-09-28T21:45:57.455Z,0.82
2022-09-28T21:48:00.810Z,1.40
2022-09-28T21:50:03.166Z,1.22
2022-09-28T21:52:04.085Z,1.12
2022-09-28T21:54:05.133Z,0.93
2022-09-28T21:56:08.211Z,1.37
2022-09-28T21:58:09.128Z,1.27
2022-09-28T22:00:10.974Z,1.15
2022-09-28T22:02:12.847Z,1.95
2022-09-28T22:04:13.954Z,0.50
2022-09-28T22:06:15.544Z,0.20
2022-09-28T22:08:16.516Z,0.25
2022-09-28T22:10:17.513Z,0.42
2022-09-28T22:12:19.172Z,0.37
2022-09-28T22:14:20.322Z,1.37
2022-09-28T22:16:22.908Z,0.30
2022-09-28T22:18:27.827Z,0.20
2022-09-28T22:20:28.767Z,0.98
2022-09-28T22:22:29.687Z,1.40
2022-09-28T22:24:30.753Z,1.35
2022-09-28T22:26:32.876Z,0.82
2022-09-28T22:28:33.937Z,2.52
2022-09-28T22:30:34.993Z,0.82
2022-09-28T22:32:36.014Z,0.20
2022-09-28T22:34:36.953Z,1.20
2022-09-28T22:36:37.913Z,2.33
2022-09-28T22:38:39.037Z,0.28
2022-09-28T22:40:53.856Z,1.37
2022-09-28T22:42:55.034Z,1.40
2022-09-28T22:44:57.880Z,2.12
2022-09-28T22:46:58.924Z,1.42
2022-09-28T22:49:00.190Z,3.50
2022-09-28T22:51:01.565Z,2.37
2022-09-28T22:53:02.684Z,1.75
2022-09-28T22:55:03.893Z,1.92
2022-09-28T22:57:04.825Z,1.02
2022-09-28T22:59:05.887Z,2.08
2022-09-28T23:01:11.118Z,3.17
2022-09-28T23:03:12.169Z,0.33
2022-09-28T23:05:13.254Z,1.10
2022-09-28T23:07:14.204Z,1.60
2022-09-28T23:09:15.203Z,0.70
2022-09-28T23:11:16.573Z,1.95
2022-09-28T23:13:17.615Z,3.00
2022-09-28T23:15:18.564Z,2.50
2022-09-28T23:17:19.617Z,3.00
2022-09-28T23:19:20.614Z,2.05
2022-09-28T23:21:25.181Z,0.98
2022-09-28T23:23:26.528Z,1.55
2022-09-28T23:25:28.089Z,3.47
2022-09-28T23:27:30.765Z,2.30
2022-09-28T23:29:31.743Z,2.75
2022-09-28T23:31:32.890Z,2.95
2022-09-28T23:33:33.913Z,1.00
2022-09-28T23:35:34.850Z,3.10
2022-09-28T23:37:39.185Z,3.42
2022-09-28T23:39:40.226Z,2.80
2022-09-28T23:41:41.183Z,2.40
2022-09-28T23:43:42.132Z,3.30
2022-09-28T23:45:43.376Z,2.65
2022-09-28T23:47:44.340Z,1.55
2022-09-28T23:49:45.296Z,4.00
2022-09-28T23:51:46.261Z,1.40
2022-09-28T23:53:48.049Z,2.12
2022-09-28T23:55:50.414Z,1.22
2022-09-28T23:57:54.103Z,2.37
2022-09-28T23:59:56.954Z,0.45
